Time;durP1;ratioP1;P1;durP2;ratioP2;P2;SDS_P1;SDS_P2;PMS_P1;PMS_P2;Temp;Humidity;BMP_temperature;BMP_pressure;BME280_temperature;BME280_humidity;BME280_pressure;Samples;Min_cycle;Max_cycle;Signal;HPM_P1;HPM_P2
2021/12/12 00:01:12;;;;;;;13.07;7.75;;;;;;;2.60;84.57;100462.63;4953768;28;20293;-77
2021/12/12 00:03:46;;;;;;;12.45;7.82;;;;;;;2.59;84.00;100460.91;4975640;28;20295;-79
2021/12/12 00:06:32;;;;;;;14.80;9.88;;;;;;;2.48;83.94;100471.47;4967884;28;20663;-78
2021/12/12 00:09:16;;;;;;;9.18;6.82;;;;;;;2.33;83.99;100477.75;4967206;28;20236;-77
2021/12/12 00:11:43;;;;;;;7.47;6.78;;;;;;;2.19;84.29;100477.13;4968425;28;20582;-78
2021/12/12 00:14:17;;;;;;;11.45;8.77;;;;;;;2.10;84.77;100480.69;4969374;28;20274;-78
2021/12/12 00:16:44;;;;;;;10.23;7.25;;;;;;;2.04;84.71;100487.72;4969005;28;20976;-79
2021/12/12 00:19:10;;;;;;;13.50;7.82;;;;;;;2.01;84.77;100495.53;4965838;28;20617;-77
2021/12/12 00:21:38;;;;;;;11.18;8.32;;;;;;;1.97;84.82;100498.19;4969035;28;20283;-78
2021/12/12 00:24:06;;;;;;;9.35;7.05;;;;;;;1.95;85.02;100501.66;4968354;28;20212;-77
2021/12/12 00:26:32;;;;;;;10.45;7.13;;;;;;;1.92;84.93;100507.75;4969429;28;20242;-78
2021/12/12 00:28:57;;;;;;;11.00;6.87;;;;;;;1.89;85.03;100510.38;4968842;28;20259;-79
2021/12/12 00:31:24;;;;;;;13.93;8.47;;;;;;;1.88;84.88;100506.06;4969499;28;20211;-79
2021/12/12 00:33:54;;;;;;;8.77;7.10;;;;;;;1.84;84.99;100517.34;4969273;28;20915;-77
2021/12/12 00:36:21;;;;;;;9.25;6.32;;;;;;;1.83;85.10;100514.78;4970048;28;20212;-78
2021/12/12 00:38:55;;;;;;;10.27;7.90;;;;;;;1.81;84.85;100513.94;4968936;28;20224;-78
2021/12/12 00:41:38;;;;;;;13.18;7.93;;;;;;;1.77;85.27;100516.56;4971029;28;20234;-78
2021/12/12 00:44:05;;;;;;;10.80;7.55;;;;;;;1.73;85.25;100519.25;4968749;28;20200;-77
2021/12/12 00:46:30;;;;;;;7.38;6.55;;;;;;;1.70;85.06;100514.06;4969461;28;20216;-78
2021/12/12 00:48:56;;;;;;;11.57;8.47;;;;;;;1.67;85.02;100514.13;4971220;28;20255;-77
2021/12/12 00:51:27;;;;;;;13.23;7.90;;;;;;;1.65;85.19;100518.47;4975916;28;20208;-77
2021/12/12 00:53:53;;;;;;;14.68;8.88;;;;;;;1.62;85.45;100516.78;4975928;28;20262;-79
2021/12/12 00:56:19;;;;;;;11.25;8.38;;;;;;;1.60;85.07;100520.25;4973091;28;20216;-77
2021/12/12 00:58:45;;;;;;;9.77;6.77;;;;;;;1.59;85.22;100528.88;4972811;28;20302;-78
2021/12/12 01:01:16;;;;;;;8.50;7.00;;;;;;;1.55;85.34;100523.75;4990460;28;20227;-79
2021/12/12 01:03:56;;;;;;;10.65;9.10;;;;;;;1.55;85.51;100521.16;4989470;28;20215;-78
2021/12/12 01:06:24;;;;;;;10.52;7.53;;;;;;;1.56;85.22;100532.38;4987023;28;20245;-78
2021/12/12 01:08:51;;;;;;;13.15;7.32;;;;;;;1.55;85.14;100523.75;4987706;28;20684;-78
2021/12/12 01:11:32;;;;;;;10.15;9.15;;;;;;;1.53;85.49;100533.25;4986616;28;20203;-79
2021/12/12 01:14:00;;;;;;;10.27;7.35;;;;;;;1.51;85.41;100536.75;4987982;28;20207;-79
2021/12/12 01:16:40;;;;;;;9.32;6.68;;;;;;;1.46;85.28;100530.75;4987461;28;20215;-77
2021/12/12 01:19:13;;;;;;;9.68;6.45;;;;;;;1.41;85.54;100541.19;4988270;28;20322;-77
2021/12/12 01:21:44;;;;;;;8.90;7.85;;;;;;;1.36;85.49;100536.94;4988017;28;20657;-77
2021/12/12 01:24:19;;;;;;;10.38;6.43;;;;;;;1.32;85.63;100536.97;4970177;28;20579;-79
2021/12/12 01:26:47;;;;;;;7.15;6.45;;;;;;;1.32;85.59;100539.56;4987523;28;20210;-77
2021/12/12 01:29:13;;;;;;;10.60;7.65;;;;;;;1.31;85.88;100536.97;4987664;28;20227;-78
2021/12/12 01:31:46;;;;;;;12.48;8.10;;;;;;;1.38;85.87;100542.94;4986140;28;20508;-77
2021/12/12 01:34:15;;;;;;;11.05;9.32;;;;;;;1.31;85.62;100543.00;4987568;28;20207;-78
2021/12/12 01:37:04;;;;;;;10.20;7.10;;;;;;;1.25;85.74;100531.88;4987178;28;20211;-77
2021/12/12 01:39:56;;;;;;;9.68;6.80;;;;;;;1.16;85.85;100540.59;4987821;28;20226;-77
2021/12/12 01:42:28;;;;;;;7.35;6.05;;;;;;;1.14;85.89;100544.06;4981900;28;20251;-77
2021/12/12 01:45:20;;;;;;;12.10;7.20;;;;;;;1.10;85.97;100548.41;4986915;28;20299;-78
2021/12/12 01:47:51;;;;;;;9.35;6.68;;;;;;;1.05;85.91;100557.94;4982055;28;20241;-79
2021/12/12 01:50:30;;;;;;;8.98;6.97;;;;;;;0.99;86.00;100561.44;4987361;28;20211;-80
2021/12/12 01:52:57;;;;;;;8.10;6.72;;;;;;;0.96;86.14;100561.47;4970347;28;21190;-79
2021/12/12 01:55:30;;;;;;;9.23;7.55;;;;;;;0.90;86.06;100556.34;4987289;28;20207;-80
2021/12/12 01:57:59;;;;;;;7.75;6.45;;;;;;;0.84;86.15;100556.44;4987017;28;20666;-78
2021/12/12 02:00:38;;;;;;;8.30;5.60;;;;;;;0.81;86.12;100552.13;4987146;28;20279;-79
2021/12/12 02:03:06;;;;;;;8.13;6.30;;;;;;;0.80;86.24;100549.53;4986498;28;20227;-78
2021/12/12 02:05:32;;;;;;;9.38;6.88;;;;;;;0.78;86.40;100546.09;4986238;28;20581;-78
2021/12/12 02:08:02;;;;;;;6.90;6.30;;;;;;;0.74;86.19;100549.59;4988211;28;20691;-80
2021/12/12 02:10:33;;;;;;;9.98;6.40;;;;;;;0.69;86.17;100541.88;4987199;28;20227;-77
2021/12/12 02:13:04;;;;;;;7.25;6.55;;;;;;;0.63;86.03;100531.59;4988520;28;20207;-78
2021/12/12 02:15:33;;;;;;;7.63;6.55;;;;;;;0.60;86.28;100526.44;4988560;28;20330;-78
2021/12/12 02:17:59;;;;;;;9.00;7.10;;;;;;;0.57;86.35;100536.81;4989848;28;20204;-77
2021/12/12 02:20:37;;;;;;;9.13;6.82;;;;;;;0.56;86.50;100545.44;4989372;28;20305;-79
2021/12/12 02:23:18;;;;;;;13.85;7.25;;;;;;;0.56;86.36;100542.84;4988853;28;20220;-78
2021/12/12 02:37:07;;;;;;;7.30;6.60;;;;;;;0.51;86.52;100560.97;4986698;28;20225;-78
2021/12/12 02:39:34;;;;;;;16.60;7.18;;;;;;;0.51;86.54;100576.47;4986687;28;20277;-78
2021/12/12 02:42:07;;;;;;;10.52;7.07;;;;;;;0.46;86.34;100560.16;4987585;28;20227;-77
2021/12/12 02:44:36;;;;;;;9.13;7.60;;;;;;;0.44;86.29;100557.56;4986553;28;20294;-80
2021/12/12 02:47:10;;;;;;;8.98;6.72;;;;;;;0.41;86.50;100560.19;4986569;28;20203;-78
2021/12/12 02:52:30;;;;;;;12.25;8.18;;;;;;;0.17;86.19;100566.38;4987053;28;20207;-78
2021/12/12 02:55:06;;;;;;;15.43;8.80;;;;;;;0.11;86.35;100568.09;4987165;28;20221;-78
2021/12/12 02:57:32;;;;;;;16.55;10.70;;;;;;;0.06;86.51;100567.31;4986446;28;20199;-80
2021/12/12 02:59:58;;;;;;;12.80;9.27;;;;;;;-0.01;86.46;100561.28;4986712;28;20342;-79
2021/12/12 03:02:29;;;;;;;16.27;11.60;;;;;;;0.10;86.93;100561.25;4985988;28;20498;-78
2021/12/12 03:04:59;;;;;;;11.82;8.25;;;;;;;0.06;86.98;100559.56;4984900;28;20559;-78
2021/12/12 03:07:25;;;;;;;11.23;7.43;;;;;;;0.05;87.18;100562.97;4985417;28;20220;-78
2021/12/12 03:09:56;;;;;;;10.38;8.23;;;;;;;0.02;86.96;100571.59;4985756;28;20216;-78
2021/12/12 03:12:31;;;;;;;10.90;8.25;;;;;;;0.02;87.17;100569.03;4968720;28;20202;-77
2021/12/12 03:15:00;;;;;;;12.05;8.40;;;;;;;0.04;87.05;100571.63;4984578;28;20228;-78
2021/12/12 03:17:26;;;;;;;11.40;8.00;;;;;;;0.06;87.07;100565.56;4983585;28;20282;-80
2021/12/12 03:19:55;;;;;;;12.73;7.82;;;;;;;0.07;87.28;100569.88;4984411;28;20724;-80
2021/12/12 03:22:22;;;;;;;8.85;7.43;;;;;;;0.05;87.02;100579.34;4982867;28;20238;-78
2021/12/12 03:24:48;;;;;;;8.40;6.57;;;;;;;0.04;87.11;100581.94;4982300;28;20208;-78
2021/12/12 03:27:15;;;;;;;12.43;8.20;;;;;;;0.03;87.18;100581.09;4983814;28;20226;-78
2021/12/12 03:29:42;;;;;;;9.50;6.93;;;;;;;0.01;86.91;100576.81;4982967;28;20482;-77
2021/12/12 03:32:12;;;;;;;12.10;7.60;;;;;;;-0.01;87.28;100571.63;4983092;28;20203;-78
2021/12/12 03:34:44;;;;;;;12.77;8.13;;;;;;;-0.01;87.06;100579.38;4981450;28;20211;-77
2021/12/12 03:37:13;;;;;;;11.88;7.20;;;;;;;0.00;87.16;100573.38;4982864;28;20238;-78
2021/12/12 03:39:41;;;;;;;8.30;6.55;;;;;;;-0.01;86.96;100579.38;4983158;28;20386;-78
2021/12/12 03:42:13;;;;;;;9.93;7.35;;;;;;;-0.02;87.36;100572.50;4983145;28;20703;-80
2021/12/12 03:44:39;;;;;;;7.63;5.80;;;;;;;-0.05;86.86;100565.63;4982254;28;20212;-77
2021/12/12 03:47:21;;;;;;;11.40;6.03;;;;;;;-0.05;87.08;100577.69;4985457;28;20216;-77
2021/12/12 03:49:47;;;;;;;13.25;7.60;;;;;;;-0.06;87.10;100575.94;4986954;28;20656;-77
2021/12/12 03:52:15;;;;;;;9.13;8.18;;;;;;;-0.08;87.13;100580.25;4987550;28;20258;-80
2021/12/12 03:54:41;;;;;;;10.85;7.32;;;;;;;-0.09;87.02;100596.63;4986919;28;20655;-78
2021/12/12 03:57:07;;;;;;;11.77;8.33;;;;;;;-0.09;86.76;100596.63;4987763;28;20219;-78
2021/12/12 03:59:34;;;;;;;11.48;8.18;;;;;;;-0.11;87.13;100591.50;4987038;28;20769;-80
2021/12/12 04:02:00;;;;;;;7.78;6.85;;;;;;;-0.11;87.09;100578.56;4986858;28;20246;-80
2021/12/12 04:04:38;;;;;;;9.30;7.13;;;;;;;-0.11;87.07;100586.31;4985736;28;20577;-78
2021/12/12 04:07:10;;;;;;;8.43;6.30;;;;;;;-0.12;87.17;100584.59;4986883;28;20211;-80
2021/12/12 04:09:36;;;;;;;9.43;7.05;;;;;;;-0.11;87.10;100596.66;4987261;28;20289;-78
2021/12/12 04:12:05;;;;;;;7.63;6.82;;;;;;;-0.12;87.14;100597.50;4986188;28;20230;-77
2021/12/12 04:14:30;;;;;;;8.38;7.03;;;;;;;-0.13;87.15;100588.03;4987170;28;20211;-78
2021/12/12 04:16:59;;;;;;;10.00;5.67;;;;;;;-0.14;87.18;100585.47;4986030;28;20218;-77
2021/12/12 04:19:25;;;;;;;7.55;6.18;;;;;;;-0.16;87.14;100584.59;4986970;28;20223;-80
2021/12/12 04:21:52;;;;;;;11.80;7.28;;;;;;;-0.18;87.21;100583.78;4986483;28;20231;-77
2021/12/12 04:24:29;;;;;;;7.57;6.43;;;;;;;-0.20;87.22;100598.41;4986731;28;20210;-78
2021/12/12 04:26:55;;;;;;;10.73;6.97;;;;;;;-0.20;87.37;100601.84;4986348;28;20736;-79
2021/12/12 04:29:32;;;;;;;8.65;6.88;;;;;;;-0.20;87.19;100607.00;4986301;28;20655;-80
2021/12/12 04:32:02;;;;;;;10.77;9.15;;;;;;;-0.20;87.47;100611.31;4985731;28;20214;-80
2021/12/12 04:34:31;;;;;;;8.88;7.95;;;;;;;-0.23;87.23;100609.59;4985691;28;20217;-76
2021/12/12 04:37:02;;;;;;;9.63;8.43;;;;;;;-0.24;87.25;100607.88;4986307;28;20317;-78
2021/12/12 04:39:31;;;;;;;8.73;7.65;;;;;;;-0.27;87.19;100608.75;4984388;28;20596;-78
2021/12/12 04:42:03;;;;;;;13.05;7.38;;;;;;;-0.27;87.45;100600.13;4984203;28;20318;-77
2021/12/12 04:44:34;;;;;;;9.60;7.63;;;;;;;-0.27;87.40;100611.34;4985968;28;20209;-78
2021/12/12 04:50:53;;;;;;;13.25;7.22;;;;;;;-0.27;87.02;100608.75;4924781;29;20234;-77
2021/12/12 04:53:33;;;;;;;6.00;5.40;;;;;;;-0.28;87.15;100612.19;4924765;29;20209;-79
2021/12/12 04:56:08;;;;;;;7.22;5.95;;;;;;;-0.30;87.05;100615.63;4971375;28;20219;-79
2021/12/12 04:58:44;;;;;;;8.40;6.45;;;;;;;-0.42;86.94;100619.13;4984950;28;20564;-79
2021/12/12 05:01:20;;;;;;;10.00;6.65;;;;;;;-0.46;87.34;100609.66;4985797;28;20235;-77
2021/12/12 05:04:10;;;;;;;9.55;6.40;;;;;;;-0.52;87.53;100607.94;4963914;28;20245;-78
2021/12/12 05:06:50;;;;;;;6.18;5.43;;;;;;;-0.54;87.35;100613.97;4985290;28;20287;-78
2021/12/12 05:09:33;;;;;;;8.15;5.40;;;;;;;-0.53;87.36;100610.53;4985893;28;20290;-78
2021/12/12 05:12:14;;;;;;;7.85;5.68;;;;;;;-0.54;87.75;100622.59;4984577;28;20261;-77
2021/12/12 05:14:45;;;;;;;7.15;5.78;;;;;;;-0.55;87.38;100625.16;4985355;28;20208;-78
2021/12/12 05:17:20;;;;;;;8.85;6.60;;;;;;;-0.59;87.69;100616.59;4985094;28;20301;-80
2021/12/12 05:19:51;;;;;;;8.05;6.70;;;;;;;-0.60;87.49;100626.91;4966328;28;20239;-78
2021/12/12 05:22:22;;;;;;;10.50;8.65;;;;;;;-0.60;87.57;100626.91;4985405;28;20234;-79
2021/12/12 05:24:50;;;;;;;11.25;7.40;;;;;;;-0.55;87.94;100627.75;4986639;28;20207;-79
2021/12/12 05:27:20;;;;;;;11.52;7.80;;;;;;;-0.48;87.86;100622.56;4986671;28;20214;-78
2021/12/12 05:29:56;;;;;;;11.15;6.78;;;;;;;-0.46;87.63;100615.69;4986347;28;20280;-81
2021/12/12 05:32:22;;;;;;;10.80;8.93;;;;;;;-0.30;87.84;100624.25;4985324;28;21598;-78
2021/12/12 05:34:49;;;;;;;12.13;7.32;;;;;;;-0.33;87.39;100615.66;4987467;28;20493;-78
2021/12/12 05:37:17;;;;;;;6.88;6.15;;;;;;;-0.41;87.27;100615.66;4987602;28;20207;-78
2021/12/12 05:39:43;;;;;;;12.73;6.88;;;;;;;-0.49;87.32;100614.81;4970068;28;20231;-78
2021/12/12 05:42:11;;;;;;;6.18;5.57;;;;;;;-0.51;87.47;100620.00;4987431;28;20224;-79
2021/12/12 05:44:37;;;;;;;6.40;5.03;;;;;;;-0.49;87.80;100617.41;4986751;28;20298;-80
2021/12/12 05:47:06;;;;;;;10.05;6.60;;;;;;;-0.48;87.48;100629.47;4986097;28;20553;-78
2021/12/12 05:49:32;;;;;;;8.07;6.38;;;;;;;-0.53;87.35;100636.34;4985836;28;20231;-79
2021/12/12 05:51:59;;;;;;;6.20;5.60;;;;;;;-0.57;87.65;100635.47;4985464;28;20196;-78
2021/12/12 05:54:26;;;;;;;7.55;5.43;;;;;;;-0.62;87.41;100632.06;4985464;28;20211;-78
2021/12/12 05:56:53;;;;;;;11.52;6.15;;;;;;;-0.62;87.29;100634.66;4986148;28;20404;-81
2021/12/12 05:59:20;;;;;;;6.40;5.10;;;;;;;-0.60;87.49;100629.47;4985506;28;20342;-80
2021/12/12 06:01:46;;;;;;;9.77;6.93;;;;;;;-0.65;87.10;100626.88;5076597;23;20240;-81
2021/12/12 06:04:12;;;;;;;7.97;6.60;;;;;;;-0.65;87.19;100615.72;4955265;28;20239;-80
2021/12/12 06:06:42;;;;;;;6.82;6.22;;;;;;;-0.72;86.98;100617.47;4959268;28;20204;-79
2021/12/12 06:09:10;;;;;;;9.57;6.40;;;;;;;-0.81;87.14;100609.72;4967845;28;20283;-80
2021/12/12 06:11:39;;;;;;;8.40;6.85;;;;;;;-0.89;87.38;100620.06;4966635;28;20219;-81
2021/12/12 06:14:07;;;;;;;7.40;5.97;;;;;;;-0.87;87.33;100618.31;4950106;29;20220;-80
2021/12/12 06:16:35;;;;;;;10.27;6.47;;;;;;;-0.83;87.29;100614.03;4948568;29;20581;-80
2021/12/12 06:19:05;;;;;;;8.02;5.97;;;;;;;-0.81;87.67;100620.91;4949338;28;20213;-80
2021/12/12 06:21:30;;;;;;;8.18;7.38;;;;;;;-0.73;87.42;100623.47;4948720;28;20232;-80
2021/12/12 06:23:58;;;;;;;9.00;6.53;;;;;;;-0.69;87.20;100638.09;4947828;28;20283;-80
2021/12/12 06:26:30;;;;;;;8.80;6.75;;;;;;;-0.71;87.47;100632.91;4949426;28;20292;-81
2021/12/12 06:28:56;;;;;;;11.43;7.40;;;;;;;-0.66;87.50;100635.50;4947900;29;20213;-81
2021/12/12 06:31:22;;;;;;;11.25;7.75;;;;;;;-0.55;87.38;100640.66;4950631;28;20512;-81
2021/12/12 06:33:48;;;;;;;10.20;7.55;;;;;;;-0.57;87.25;100637.22;4951220;28;20914;-80
2021/12/12 06:36:15;;;;;;;8.80;6.47;;;;;;;-0.60;87.07;100647.53;4971057;28;20204;-82
2021/12/12 06:38:45;;;;;;;10.45;7.65;;;;;;;-0.67;87.00;100649.28;4961833;28;20607;-81
2021/12/12 06:41:10;;;;;;;14.80;8.00;;;;;;;-0.73;87.03;100654.41;4951762;29;20221;-80
2021/12/12 06:43:37;;;;;;;15.03;8.20;;;;;;;-0.75;87.03;100653.59;4951629;28;20244;-81
2021/12/12 06:46:05;;;;;;;15.75;8.35;;;;;;;-0.77;87.14;100648.41;4951834;28;20233;-81
2021/12/12 06:48:31;;;;;;;15.52;9.57;;;;;;;-0.76;87.29;100651.84;4948999;28;20197;-81
2021/12/12 06:50:58;;;;;;;15.20;9.97;;;;;;;-0.73;87.06;100652.72;4950627;29;20574;-80
2021/12/12 06:53:27;;;;;;;11.50;8.95;;;;;;;-0.73;86.91;100651.84;4949259;28;21008;-80
2021/12/12 06:55:55;;;;;;;16.65;11.85;;;;;;;-0.71;87.13;100647.56;4949943;28;20304;-80
2021/12/12 06:58:22;;;;;;;14.25;11.13;;;;;;;-0.63;86.89;100660.44;4948867;28;20669;-80
2021/12/12 07:00:53;;;;;;;17.17;11.43;;;;;;;-0.62;86.66;100657.88;4950607;29;20209;-82
2021/12/12 07:03:19;;;;;;;14.13;10.60;;;;;;;-0.64;86.78;100664.75;4962316;28;20264;-80
2021/12/12 07:05:46;;;;;;;17.73;9.90;;;;;;;-0.65;86.74;100659.59;4948653;29;20689;-80
2021/12/12 07:08:14;;;;;;;17.17;11.27;;;;;;;-0.62;86.87;100669.91;4949643;28;20201;-80
2021/12/12 07:10:42;;;;;;;19.73;13.90;;;;;;;-0.54;87.27;100678.50;4948843;29;20275;-81
2021/12/12 07:13:09;;;;;;;27.13;16.88;;;;;;;-0.46;87.04;100674.19;4949476;28;20803;-80
2021/12/12 07:15:43;;;;;;;21.48;13.93;;;;;;;-0.44;86.73;100687.94;4948849;28;20216;-80
2021/12/12 07:18:12;;;;;;;25.15;13.43;;;;;;;-0.43;86.56;100687.09;4949468;29;20232;-81
2021/12/12 07:20:39;;;;;;;14.00;8.77;;;;;;;-0.46;86.61;100702.56;4949307;28;20260;-80
2021/12/12 07:23:10;;;;;;;12.52;8.50;;;;;;;-0.51;87.00;100696.56;4953017;28;20868;-80
2021/12/12 07:25:37;;;;;;;14.48;7.35;;;;;;;-0.53;86.96;100706.03;4953372;28;20209;-79
2021/12/12 07:28:04;;;;;;;11.13;6.80;;;;;;;-0.55;86.92;100697.44;4954163;28;20213;-81
2021/12/12 07:30:29;;;;;;;10.13;6.35;;;;;;;-0.50;87.20;100703.44;4954019;28;20232;-81
2021/12/12 07:32:55;;;;;;;11.73;6.93;;;;;;;-0.40;87.11;100710.31;4952603;28;20221;-80
2021/12/12 07:35:21;;;;;;;9.10;6.83;;;;;;;-0.28;86.98;100714.59;4954740;29;20271;-80
2021/12/12 07:37:48;;;;;;;7.37;5.73;;;;;;;-0.20;86.74;100696.53;4954194;28;20456;-80
2021/12/12 07:40:15;;;;;;;11.15;7.82;;;;;;;-0.12;86.53;100700.78;4954340;28;20448;-80
2021/12/12 07:42:41;;;;;;;13.10;6.13;;;;;;;-0.05;86.24;100693.91;4952842;28;20565;-80
2021/12/12 07:45:08;;;;;;;13.65;9.15;;;;;;;0.02;86.31;100694.72;4958986;28;20256;-80
2021/12/12 07:47:34;;;;;;;13.95;12.05;;;;;;;0.06;86.32;100699.91;4956976;28;20677;-81
2021/12/12 07:50:02;;;;;;;13.50;11.17;;;;;;;0.10;86.53;100704.16;4954011;28;20208;-81
2021/12/12 07:52:28;;;;;;;17.85;13.40;;;;;;;0.17;86.21;100708.47;4956262;28;20225;-80
2021/12/12 07:54:56;;;;;;;17.83;15.47;;;;;;;0.25;86.19;100712.75;4960145;28;20608;-81
2021/12/12 07:57:25;;;;;;;17.10;13.65;;;;;;;0.32;86.10;100712.69;4953580;28;20456;-80
2021/12/12 07:59:53;;;;;;;19.42;15.05;;;;;;;0.38;86.10;100717.00;4952751;29;20209;-81
2021/12/12 08:02:20;;;;;;;26.90;19.80;;;;;;;0.55;86.17;100722.94;4951708;28;20502;-81
2021/12/12 08:04:47;;;;;;;28.17;22.02;;;;;;;0.61;86.07;100724.66;4952509;28;20205;-80
2021/12/12 08:07:18;;;;;;;25.02;17.75;;;;;;;0.63;85.99;100718.59;4952881;28;20236;-80
2021/12/12 08:09:44;;;;;;;19.40;16.52;;;;;;;0.62;85.64;100716.91;4952120;28;20215;-79
2021/12/12 08:12:13;;;;;;;20.17;16.65;;;;;;;0.62;85.88;100726.34;4953016;28;20220;-80
2021/12/12 08:14:40;;;;;;;19.50;15.30;;;;;;;0.63;85.95;100726.34;4952547;29;20224;-80
2021/12/12 08:17:06;;;;;;;18.38;14.57;;;;;;;0.68;86.05;100722.91;4953321;28;20216;-80
2021/12/12 08:19:33;;;;;;;17.58;11.32;;;;;;;0.78;85.88;100735.75;4952343;28;20636;-81
2021/12/12 08:22:06;;;;;;;17.65;13.68;;;;;;;0.88;85.80;100731.41;4966412;28;20243;-80
2021/12/12 08:24:33;;;;;;;18.15;14.00;;;;;;;0.99;85.58;100726.16;4951543;29;20217;-80
2021/12/12 08:26:59;;;;;;;22.08;14.75;;;;;;;1.10;85.52;100729.53;4952638;28;20241;-80
2021/12/12 08:29:25;;;;;;;21.37;13.90;;;;;;;1.20;85.38;100717.38;4953121;28;20208;-81
2021/12/12 08:31:51;;;;;;;19.10;15.77;;;;;;;1.40;84.96;100715.47;4951321;28;20561;-79
2021/12/12 08:34:18;;;;;;;18.15;13.48;;;;;;;1.45;84.94;100723.22;4950041;28;20973;-80
2021/12/12 08:36:52;;;;;;;14.73;12.52;;;;;;;1.47;84.62;100718.91;4952519;28;20665;-80
2021/12/12 08:39:18;;;;;;;13.32;10.30;;;;;;;1.47;84.38;100718.91;4951509;29;20264;-79
2021/12/12 08:41:48;;;;;;;12.27;9.40;;;;;;;1.41;84.23;100709.47;4949466;28;20228;-79
2021/12/12 08:44:14;;;;;;;12.23;8.88;;;;;;;1.38;84.40;100716.38;4949524;29;20221;-79
2021/12/12 08:46:43;;;;;;;10.00;8.27;;;;;;;1.38;84.68;100716.38;4949420;28;20213;-81
2021/12/12 08:49:11;;;;;;;9.13;7.40;;;;;;;1.44;84.67;100717.19;4956202;28;20662;-79
2021/12/12 08:51:45;;;;;;;10.32;7.82;;;;;;;1.53;84.65;100706.75;4941317;29;20317;-79
2021/12/12 08:54:22;;;;;;;12.38;9.27;;;;;;;1.65;84.31;100717.88;4930793;29;20690;-81
2021/12/12 08:56:49;;;;;;;15.80;11.00;;;;;;;1.74;84.00;100716.06;4930071;29;20237;-79
2021/12/12 08:59:19;;;;;;;14.02;11.18;;;;;;;1.84;84.09;100722.00;4930099;29;20198;-81
2021/12/12 09:01:48;;;;;;;17.17;12.15;;;;;;;1.94;83.90;100720.16;4930447;29;20240;-79
2021/12/12 09:04:14;;;;;;;33.00;29.90;;;;;;;1.99;83.50;100711.47;4929389;29;20225;-80
2021/12/12 09:06:53;;;;;;;33.93;30.67;;;;;;;2.06;83.00;100719.19;4929490;29;20214;-79
2021/12/12 09:09:29;;;;;;;23.95;21.35;;;;;;;2.02;83.24;100713.16;4933124;29;20450;-79
2021/12/12 09:12:00;;;;;;;11.27;9.80;;;;;;;1.96;83.30;100711.50;4941292;29;20288;-80
2021/12/12 09:14:36;;;;;;;10.45;8.32;;;;;;;1.92;83.27;100717.59;4931590;29;20847;-81
2021/12/12 09:17:16;;;;;;;10.00;8.32;;;;;;;1.88;83.17;100721.09;4930468;29;20303;-80
2021/12/12 09:19:44;;;;;;;13.38;9.10;;;;;;;1.88;83.31;100715.06;4931128;29;20220;-81
2021/12/12 09:22:26;;;;;;;14.65;8.60;;;;;;;1.92;83.08;100712.44;4931042;29;20237;-81
2021/12/12 09:25:19;;;;;;;14.70;9.20;;;;;;;1.96;83.26;100701.13;4929247;29;20209;-78
2021/12/12 09:28:03;;;;;;;15.52;9.57;;;;;;;2.01;83.13;100708.88;4928272;29;20216;-79
2021/12/12 09:30:28;;;;;;;14.40;10.57;;;;;;;2.08;82.62;100699.28;4928422;29;20517;-79
2021/12/12 09:33:00;;;;;;;14.87;10.37;;;;;;;2.12;82.75;100707.00;4928371;29;20233;-79
2021/12/12 09:35:31;;;;;;;12.70;8.82;;;;;;;2.16;82.61;100706.13;4928937;29;20232;-79
2021/12/12 09:38:06;;;;;;;13.05;8.98;;;;;;;2.20;82.66;100706.94;4927846;29;20293;-79
2021/12/12 09:40:57;;;;;;;9.52;6.50;;;;;;;2.24;82.17;100705.16;4942668;28;20272;-79
2021/12/12 09:43:25;;;;;;;7.20;6.25;;;;;;;2.24;81.91;100702.56;4946573;28;20304;-79
2021/12/12 09:46:26;;;;;;;8.57;5.40;;;;;;;2.26;82.13;100699.06;4960957;28;20209;-81
2021/12/12 09:52:40;;;;;;;8.18;6.28;;;;;;;2.28;81.43;100702.50;4949231;28;20232;-80
2021/12/12 09:55:12;;;;;;;8.38;6.35;;;;;;;2.25;81.42;100702.56;4949481;29;20216;-80
2021/12/12 09:57:47;;;;;;;7.15;6.38;;;;;;;2.28;82.00;100704.25;4947900;28;20236;-80
2021/12/12 10:00:25;;;;;;;7.05;5.85;;;;;;;2.29;81.59;100696.44;4947557;29;20208;-79
2021/12/12 10:03:12;;;;;;;7.93;5.80;;;;;;;2.33;81.78;100695.53;4947780;28;20248;-79
2021/12/12 10:05:50;;;;;;;7.43;6.63;;;;;;;2.38;81.32;100691.16;4946713;29;20501;-79
2021/12/12 10:08:34;;;;;;;7.30;6.55;;;;;;;2.45;81.30;100686.75;4946849;28;20669;-79
2021/12/12 10:11:25;;;;;;;7.93;7.13;;;;;;;2.54;81.35;100683.16;4946468;29;20201;-80
2021/12/12 10:14:02;;;;;;;8.48;6.75;;;;;;;2.61;81.22;100684.81;4948740;28;20216;-79
2021/12/12 10:16:33;;;;;;;8.68;7.80;;;;;;;2.69;80.85;100695.06;4949867;28;20209;-81
2021/12/12 10:19:11;;;;;;;8.38;6.65;;;;;;;2.75;80.92;100690.66;4948098;28;20332;-81
2021/12/12 10:21:51;;;;;;;8.18;6.70;;;;;;;2.80;80.77;100691.44;4947829;28;20232;-78
2021/12/12 10:24:27;;;;;;;9.50;8.35;;;;;;;2.86;80.85;100698.28;4947829;28;20232;-79
2021/12/12 10:27:01;;;;;;;26.15;23.60;;;;;;;2.90;80.57;100699.97;4946597;29;20323;-78
2021/12/12 10:29:31;;;;;;;10.82;9.13;;;;;;;2.93;80.31;100693.88;4947034;28;20209;-79
2021/12/12 10:32:18;;;;;;;11.53;9.53;;;;;;;3.04;80.17;100684.19;4945336;28;21256;-79
2021/12/12 10:34:58;;;;;;;14.05;8.70;;;;;;;3.01;80.46;100681.63;4946716;29;20468;-79
2021/12/12 10:37:59;;;;;;;7.45;6.05;;;;;;;2.99;80.55;100684.25;4947259;29;20213;-79
2021/12/12 10:40:41;;;;;;;7.63;6.20;;;;;;;2.99;80.28;100680.78;4929412;28;20264;-79
2021/12/12 10:43:12;;;;;;;7.05;5.68;;;;;;;3.02;80.43;100685.94;4951386;28;20770;-79
2021/12/12 10:45:43;;;;;;;6.90;5.88;;;;;;;3.03;80.11;100682.47;4947512;29;20201;-79
2021/12/12 10:48:15;;;;;;;9.20;7.28;;;;;;;3.02;80.04;100684.19;4947711;28;20209;-79
2021/12/12 10:50:55;;;;;;;8.90;7.00;;;;;;;3.05;79.81;100676.38;4949559;28;20244;-79
2021/12/12 10:53:25;;;;;;;8.50;6.13;;;;;;;3.08;79.82;100678.06;4950703;28;20334;-80
2021/12/12 10:55:58;;;;;;;8.07;6.57;;;;;;;3.09;80.06;100678.03;4949766;28;20217;-80
2021/12/12 10:58:37;;;;;;;7.43;5.78;;;;;;;3.16;79.94;100672.72;4952095;28;20217;-80
2021/12/12 11:01:09;;;;;;;9.43;7.13;;;;;;;3.21;79.74;100673.53;4950087;28;20550;-79
2021/12/12 11:03:42;;;;;;;9.85;6.43;;;;;;;3.19;79.85;100667.53;4950277;28;20493;-79
2021/12/12 11:06:19;;;;;;;8.05;6.80;;;;;;;3.16;79.64;100676.22;4949933;28;20224;-79
2021/12/12 11:08:54;;;;;;;8.10;6.43;;;;;;;3.18;79.87;100669.22;4956556;28;20681;-79
2021/12/12 11:11:28;;;;;;;7.25;5.43;;;;;;;3.19;79.78;100670.13;4942088;29;20223;-79
2021/12/12 11:14:01;;;;;;;12.45;7.15;;;;;;;3.24;79.69;100663.97;4949526;29;20231;-80
2021/12/12 11:16:30;;;;;;;7.63;6.93;;;;;;;3.31;79.65;100660.34;4949019;28;20279;-80
2021/12/12 11:19:20;;;;;;;11.13;7.28;;;;;;;3.38;79.49;100670.66;4948441;29;20670;-79
2021/12/12 11:21:55;;;;;;;7.97;6.65;;;;;;;3.39;79.50;100669.78;4960212;28;20319;-79
2021/12/12 11:24:32;;;;;;;8.20;6.78;;;;;;;3.37;79.59;100667.19;4947401;29;20204;-79
2021/12/12 11:27:03;;;;;;;9.57;6.80;;;;;;;3.41;79.72;100668.00;4947641;28;20216;-80
2021/12/12 11:29:40;;;;;;;13.88;8.23;;;;;;;3.46;79.96;100659.25;4947711;28;20571;-80
2021/12/12 11:32:11;;;;;;;10.77;7.50;;;;;;;3.54;79.79;100659.13;4946412;28;20252;-80
2021/12/12 11:34:43;;;;;;;10.93;7.97;;;;;;;3.58;79.77;100658.16;4945886;29;20231;-78
2021/12/12 11:37:36;;;;;;;10.77;8.25;;;;;;;3.63;79.56;100661.53;4946308;28;20205;-80
2021/12/12 11:40:05;;;;;;;16.33;8.68;;;;;;;3.69;79.33;100653.63;4945789;29;20212;-79
2021/12/12 11:42:33;;;;;;;16.80;10.60;;;;;;;3.72;79.59;100645.78;4945916;28;20737;-79
2021/12/12 11:45:17;;;;;;;8.50;6.53;;;;;;;3.79;79.24;100651.72;4946428;28;20228;-79
2021/12/12 11:47:58;;;;;;;13.73;9.30;;;;;;;3.83;79.42;100649.91;4946249;28;20205;-79
2021/12/12 11:50:53;;;;;;;6.53;5.85;;;;;;;3.87;78.90;100648.97;4946150;29;20205;-79
2021/12/12 11:53:28;;;;;;;11.77;7.60;;;;;;;3.91;79.08;100655.81;4945705;28;20260;-78
2021/12/12 11:55:56;;;;;;;7.82;7.03;;;;;;;3.97;78.63;100648.78;4946048;29;20223;-79
2021/12/12 11:58:44;;;;;;;10.48;6.80;;;;;;;4.01;78.90;100646.97;4946342;28;20267;-79
2021/12/12 12:01:22;;;;;;;9.75;7.13;;;;;;;4.06;78.68;100639.06;4947126;28;20201;-79
2021/12/12 12:04:16;;;;;;;10.48;6.65;;;;;;;4.10;78.28;100640.72;4947779;29;20902;-78
2021/12/12 12:07:00;;;;;;;10.88;9.00;;;;;;;4.15;78.28;100634.53;4945411;28;20264;-78